createdAt,value
2022-08-17T00:00:36.894Z,7.72
2022-08-17T00:03:08.835Z,7.28
2022-08-17T00:05:49.221Z,7.30
2022-08-17T00:08:20.759Z,7.28
2022-08-17T00:10:49.870Z,7.03
2022-08-17T00:13:27.512Z,7.20
2022-08-17T00:16:02.861Z,7.38
2022-08-17T00:19:01.627Z,7.60
2022-08-17T00:21:23.889Z,7.18
2022-08-17T00:23:53.626Z,7.78
2022-08-17T00:26:43.427Z,7.60
2022-08-17T00:29:09.916Z,7.10
2022-08-17T00:31:46.983Z,7.70
2022-08-17T00:34:14.054Z,7.47
2022-08-17T00:36:41.086Z,6.90
2022-08-17T00:39:08.083Z,7.60
2022-08-17T00:41:35.888Z,7.53
2022-08-17T00:44:05.997Z,7.97
2022-08-17T00:46:39.289Z,7.00
2022-08-17T00:49:09.668Z,7.60
2022-08-17T00:51:49.673Z,7.30
2022-08-17T00:54:30.141Z,7.25
2022-08-17T00:57:30.912Z,7.43
2022-08-17T01:00:18.850Z,7.78
2022-08-17T01:02:48.187Z,6.90
2022-08-17T01:05:23.684Z,7.25
2022-08-17T01:07:53.621Z,7.68
2022-08-17T01:10:59.305Z,7.55
2022-08-17T01:13:16.181Z,7.72
2022-08-17T01:16:02.651Z,7.85
2022-08-17T01:18:31.160Z,7.75
2022-08-17T01:21:14.187Z,7.50
2022-08-17T01:23:42.446Z,7.32
2022-08-17T01:26:09.548Z,7.88
2022-08-17T01:28:54.652Z,7.10
2022-08-17T01:31:25.522Z,7.88
2022-08-17T01:33:53.034Z,7.25
2022-08-17T01:36:20.258Z,7.75
2022-08-17T01:38:47.309Z,8.30
2022-08-17T01:41:16.690Z,7.78
2022-08-17T01:43:59.228Z,7.43
2022-08-17T01:46:32.083Z,7.57
2022-08-17T01:48:59.737Z,7.32
2022-08-17T01:51:32.700Z,7.45
2022-08-17T01:54:08.678Z,8.07
2022-08-17T01:56:44.076Z,7.57
2022-08-17T01:59:15.542Z,7.40
2022-08-17T02:01:44.232Z,7.07
2022-08-17T02:04:12.223Z,8.20
2022-08-17T02:06:53.765Z,7.45
2022-08-17T02:09:29.914Z,8.13
2022-08-17T02:11:59.966Z,7.85
2022-08-17T02:14:47.075Z,7.85
2022-08-17T02:17:14.115Z,7.47
2022-08-17T02:19:41.904Z,7.70
2022-08-17T02:22:09.032Z,8.43
2022-08-17T02:25:00.720Z,7.90
2022-08-17T02:27:25.567Z,8.02
2022-08-17T02:29:52.661Z,7.88
2022-08-17T02:32:27.604Z,7.88
2022-08-17T02:34:57.156Z,8.20
2022-08-17T02:37:25.749Z,8.38
2022-08-17T02:39:53.395Z,7.80
2022-08-17T02:42:29.606Z,7.57
2022-08-17T02:44:56.616Z,7.77
2022-08-17T02:47:23.800Z,8.02
2022-08-17T02:49:54.203Z,7.50
2022-08-17T02:52:42.684Z,7.57
2022-08-17T02:55:16.791Z,7.97
2022-08-17T02:57:44.740Z,7.65
2022-08-17T03:00:23.642Z,8.20
2022-08-17T03:02:51.962Z,6.97
2022-08-17T03:05:22.550Z,7.70
2022-08-17T03:07:49.745Z,7.80
2022-08-17T03:10:17.961Z,8.02
2022-08-17T03:12:46.615Z,8.90
2022-08-17T03:15:26.572Z,8.80
2022-08-17T03:17:55.542Z,8.98
2022-08-17T03:20:24.817Z,8.93
2022-08-17T03:23:02.685Z,8.23
2022-08-17T03:25:39.609Z,8.20
2022-08-17T03:28:07.247Z,8.95
2022-08-17T03:30:34.942Z,8.65
2022-08-17T03:33:06.143Z,8.80
2022-08-17T03:35:36.432Z,8.60
2022-08-17T03:38:05.054Z,8.98
2022-08-17T03:40:55.545Z,9.15
2022-08-17T03:43:22.405Z,8.77
2022-08-17T03:46:10.972Z,8.33
2022-08-17T03:49:15.379Z,7.77
2022-08-17T03:52:01.205Z,7.60
2022-08-17T03:54:46.682Z,8.10
2022-08-17T03:57:13.972Z,7.38
2022-08-17T03:59:41.391Z,7.70
2022-08-17T04:02:33.669Z,8.05
2022-08-17T04:05:01.774Z,7.43
2022-08-17T04:07:30.866Z,8.25
2022-08-17T04:09:59.410Z,8.73
2022-08-17T04:12:32.148Z,7.93
2022-08-17T04:14:59.773Z,8.00
2022-08-17T04:17:29.188Z,8.25
2022-08-17T04:19:57.085Z,7.57
2022-08-17T04:22:32.400Z,7.60
2022-08-17T04:25:18.382Z,7.63
2022-08-17T04:27:45.382Z,7.60
2022-08-17T04:30:13.198Z,7.88
2022-08-17T04:33:00.497Z,7.07
2022-08-17T04:35:44.849Z,7.20
2022-08-17T04:38:16.501Z,7.47
2022-08-17T04:41:02.937Z,7.00
2022-08-17T04:43:32.481Z,7.20
2022-08-17T04:46:06.503Z,7.15
2022-08-17T04:48:50.129Z,7.43
2022-08-17T04:51:28.646Z,7.35
2022-08-17T04:54:03.045Z,7.05
2022-08-17T04:56:31.525Z,6.95
2022-08-17T04:59:05.511Z,7.57
2022-08-17T05:01:36.649Z,7.22
2022-08-17T05:04:21.113Z,6.70
2022-08-17T05:06:56.332Z,7.22
2022-08-17T05:09:23.521Z,6.53
2022-08-17T05:11:51.448Z,6.88
2022-08-17T05:14:18.493Z,6.45
2022-08-17T05:16:48.275Z,6.85
2022-08-17T05:19:15.334Z,6.85
2022-08-17T05:21:42.336Z,6.18
2022-08-17T05:24:16.733Z,6.40
2022-08-17T05:26:56.295Z,6.82
2022-08-17T05:29:23.307Z,6.22
2022-08-17T05:32:39.509Z,7.45
2022-08-17T05:35:00.752Z,6.10
2022-08-17T05:37:28.000Z,6.13
2022-08-17T05:39:55.118Z,6.32
2022-08-17T05:42:22.652Z,5.47
2022-08-17T05:44:49.751Z,5.50
2022-08-17T05:47:18.304Z,5.45
2022-08-17T05:49:45.571Z,5.28
2022-08-17T05:52:46.438Z,5.45
2022-08-17T05:55:40.770Z,5.45
2022-08-17T05:58:29.095Z,5.22
2022-08-17T06:01:20.958Z,4.88
2022-08-17T06:04:38.886Z,4.93
2022-08-17T06:07:42.406Z,5.43
2022-08-17T06:10:42.502Z,5.15
2022-08-17T06:13:31.655Z,4.85
2022-08-17T06:16:33.065Z,4.28
2022-08-17T06:19:23.863Z,4.80
2022-08-17T06:21:54.963Z,4.82
2022-08-17T06:24:59.119Z,4.65
2022-08-17T06:27:32.848Z,4.78
2022-08-17T06:30:09.186Z,4.85
2022-08-17T06:32:44.790Z,4.10
2022-08-17T06:35:33.526Z,4.22
2022-08-17T06:38:37.007Z,4.43
2022-08-17T06:41:26.098Z,4.85
2022-08-17T06:44:51.504Z,4.55
2022-08-17T06:47:50.987Z,4.25
2022-08-17T06:50:37.059Z,4.57
2022-08-17T06:53:21.553Z,4.80
2022-08-17T06:56:04.883Z,4.30
2022-08-17T06:58:33.432Z,4.35
2022-08-17T07:01:19.857Z,4.25
2022-08-17T07:03:57.477Z,4.40
2022-08-17T07:06:32.908Z,4.70
2022-08-17T07:09:14.601Z,4.00
2022-08-17T07:12:16.069Z,4.43
2022-08-17T07:15:05.390Z,3.95
2022-08-17T07:17:47.781Z,3.97
2022-08-17T07:20:21.216Z,4.50
2022-08-17T07:23:17.448Z,4.27
2022-08-17T07:25:44.562Z,3.95
2022-08-17T07:28:13.034Z,4.32
2022-08-17T07:30:49.700Z,4.10
2022-08-17T07:33:34.307Z,3.95
2022-08-17T07:36:01.712Z,3.90
2022-08-17T07:38:32.677Z,3.80
2022-08-17T07:41:06.744Z,4.27
2022-08-17T07:43:39.700Z,4.75
2022-08-17T07:46:38.663Z,4.05
2022-08-17T07:49:08.610Z,4.10
2022-08-17T07:51:44.384Z,4.03
2022-08-17T07:54:22.636Z,3.90
2022-08-17T07:56:56.891Z,4.10
2022-08-17T07:59:33.300Z,4.17
2022-08-17T08:02:06.854Z,3.67
2022-08-17T08:05:06.819Z,3.67
2022-08-17T08:07:42.649Z,3.90
2022-08-17T08:10:28.105Z,3.70
2022-08-17T08:13:12.288Z,3.65
2022-08-17T08:15:54.034Z,3.95
2022-08-17T08:18:38.717Z,4.13
2022-08-17T08:21:24.386Z,3.70
2022-08-17T08:23:57.520Z,3.80
2022-08-17T08:27:11.417Z,3.70
2022-08-17T08:30:21.433Z,3.88
2022-08-17T08:33:07.603Z,4.10
2022-08-17T08:35:53.717Z,3.57
2022-08-17T08:38:47.392Z,3.67
2022-08-17T08:41:35.426Z,3.50
2022-08-17T08:45:00.087Z,3.73
2022-08-17T08:47:55.309Z,5.97
2022-08-17T08:51:13.650Z,3.63
2022-08-17T08:53:55.857Z,3.33
2022-08-17T08:57:21.513Z,3.78
2022-08-17T08:59:59.248Z,3.72
2022-08-17T09:02:43.800Z,3.67
2022-08-17T09:06:02.853Z,3.33
2022-08-17T09:09:08.333Z,3.17
2022-08-17T09:12:02.742Z,3.50
2022-08-17T09:14:49.535Z,3.55
2022-08-17T09:17:28.829Z,3.65
2022-08-17T09:20:32.966Z,3.42
2022-08-17T09:23:44.966Z,4.00
2022-08-17T09:26:22.948Z,3.85
2022-08-17T09:29:01.449Z,3.85
2022-08-17T09:32:03.635Z,3.50
2022-08-17T09:34:54.787Z,3.50
2022-08-17T09:38:04.570Z,3.42
2022-08-17T09:40:39.886Z,4.20
2022-08-17T09:43:28.875Z,3.47
2022-08-17T09:46:22.519Z,6.15
2022-08-17T09:49:27.673Z,3.70
2022-08-17T09:52:19.160Z,3.63
2022-08-17T09:54:48.717Z,3.70
2022-08-17T09:57:39.785Z,3.30
2022-08-17T10:00:27.262Z,3.67
2022-08-17T10:03:20.581Z,3.60
2022-08-17T10:06:22.138Z,3.55
2022-08-17T10:09:35.422Z,3.70
2022-08-17T10:12:35.559Z,3.47
2022-08-17T10:15:15.237Z,3.30
2022-08-17T10:17:59.768Z,3.38
2022-08-17T10:20:49.006Z,3.22
2022-08-17T10:23:47.532Z,3.40
2022-08-17T10:26:23.143Z,3.15
2022-08-17T10:29:02.507Z,3.90
2022-08-17T10:31:54.954Z,3.10
2022-08-17T10:34:40.961Z,2.80
2022-08-17T10:37:46.480Z,3.15
2022-08-17T10:40:57.439Z,3.58
2022-08-17T10:43:37.244Z,3.10
2022-08-17T10:46:33.862Z,5.30
2022-08-17T10:49:19.052Z,6.47
2022-08-17T10:51:54.495Z,6.38
2022-08-17T10:54:24.416Z,3.80
2022-08-17T10:56:56.976Z,3.20
2022-08-17T10:59:36.193Z,3.25
2022-08-17T11:02:20.088Z,2.95
2022-08-17T11:05:18.154Z,3.47
2022-08-17T11:08:10.692Z,3.00
2022-08-17T11:11:10.339Z,2.97
2022-08-17T11:14:11.210Z,2.60
2022-08-17T11:16:59.320Z,3.00
2022-08-17T11:20:13.221Z,2.88
2022-08-17T11:23:43.054Z,3.10
2022-08-17T11:26:26.698Z,2.70
2022-08-17T11:29:01.421Z,2.67
2022-08-17T11:31:41.603Z,2.90
2022-08-17T11:34:21.656Z,2.75
2022-08-17T11:37:53.119Z,2.70
2022-08-17T11:40:41.411Z,2.80
2022-08-17T11:43:25.671Z,3.30
2022-08-17T11:47:10.394Z,3.40
2022-08-17T11:50:10.986Z,2.80
2022-08-17T11:52:50.076Z,3.03
2022-08-17T11:55:35.843Z,2.70
2022-08-17T11:58:26.483Z,2.90
2022-08-17T12:01:13.491Z,2.90
2022-08-17T12:03:54.459Z,2.65
2022-08-17T12:06:44.857Z,2.47
2022-08-17T12:09:24.889Z,2.92
2022-08-17T12:12:12.894Z,2.93
2022-08-17T12:15:11.930Z,3.03
2022-08-17T12:17:42.623Z,3.00
2022-08-17T12:20:38.099Z,2.83
2022-08-17T12:23:35.851Z,2.65
2022-08-17T12:26:16.628Z,2.85
2022-08-17T12:28:52.898Z,2.42
2022-08-17T12:31:30.999Z,3.17
2022-08-17T12:34:00.455Z,2.90
2022-08-17T12:36:28.817Z,3.00
2022-08-17T12:39:13.705Z,2.45
2022-08-17T12:41:47.023Z,2.80
2022-08-17T12:44:27.746Z,2.58
2022-08-17T12:47:07.745Z,2.80
2022-08-17T12:49:39.286Z,2.53
2022-08-17T12:52:16.034Z,2.90
2022-08-17T12:55:06.199Z,2.50
2022-08-17T12:57:38.976Z,2.72
2022-08-17T13:00:22.486Z,2.55
2022-08-17T13:02:56.299Z,2.70
2022-08-17T13:05:31.566Z,2.70
2022-08-17T13:08:00.199Z,2.67
2022-08-17T13:10:33.589Z,2.70
2022-08-17T13:13:17.695Z,2.92
2022-08-17T13:15:55.634Z,2.65
2022-08-17T13:18:40.912Z,2.60
2022-08-17T13:21:30.681Z,2.72
2022-08-17T13:24:06.950Z,2.60
2022-08-17T13:27:08.385Z,2.47
2022-08-17T13:29:53.730Z,2.80
2022-08-17T13:32:47.172Z,2.47
2022-08-17T13:35:49.962Z,2.58
2022-08-17T13:38:39.545Z,2.38
2022-08-17T13:41:07.558Z,2.30
2022-08-17T13:43:48.529Z,2.10
2022-08-17T13:46:31.127Z,2.50
2022-08-17T13:49:06.731Z,2.90
2022-08-17T13:51:45.364Z,2.40
2022-08-17T13:54:24.288Z,2.35
2022-08-17T13:57:17.148Z,2.88
2022-08-17T13:59:54.278Z,2.70
2022-08-17T14:02:27.599Z,2.25
2022-08-17T14:04:56.875Z,2.28
2022-08-17T14:07:32.201Z,2.67
2022-08-17T14:10:17.404Z,2.45
2022-08-17T14:12:46.073Z,2.45
2022-08-17T14:15:17.049Z,2.20
2022-08-17T14:17:44.394Z,2.60
2022-08-17T14:20:14.134Z,2.42
2022-08-17T14:22:46.386Z,2.40
2022-08-17T14:25:24.496Z,2.67
2022-08-17T14:27:54.141Z,2.33
2022-08-17T14:30:29.924Z,2.70
2022-08-17T14:32:58.438Z,2.67
2022-08-17T14:35:27.937Z,2.50
2022-08-17T14:37:55.695Z,2.40
2022-08-17T14:40:25.042Z,2.70
2022-08-17T14:42:55.307Z,2.45
2022-08-17T14:45:31.773Z,2.30
2022-08-17T14:48:08.972Z,2.65
2022-08-17T14:50:41.848Z,2.85
2022-08-17T14:53:14.767Z,3.40
2022-08-17T14:55:42.022Z,3.67
2022-08-17T14:58:09.524Z,3.15
2022-08-17T15:00:37.320Z,4.10
2022-08-17T15:03:05.345Z,3.90
2022-08-17T15:05:36.856Z,3.97
2022-08-17T15:08:05.586Z,4.20
2022-08-17T15:10:33.339Z,4.00
2022-08-17T15:13:00.590Z,4.20
2022-08-17T15:15:28.913Z,3.90
2022-08-17T15:17:56.680Z,4.82
2022-08-17T15:20:29.793Z,4.13
2022-08-17T15:22:57.532Z,4.50
2022-08-17T15:25:28.783Z,4.30
2022-08-17T15:27:57.327Z,4.05
2022-08-17T15:30:25.964Z,4.53
2022-08-17T15:32:55.506Z,4.35
2022-08-17T15:35:30.321Z,4.68
2022-08-17T15:38:06.147Z,4.30
2022-08-17T15:40:36.731Z,4.22
2022-08-17T15:43:17.337Z,4.15
2022-08-17T15:45:58.610Z,4.25
2022-08-17T15:48:42.202Z,3.13
2022-08-17T15:51:15.012Z,3.77
2022-08-17T15:53:46.167Z,3.85
2022-08-17T15:56:15.076Z,3.53
2022-08-17T15:58:44.255Z,3.78
2022-08-17T16:01:14.914Z,3.90
2022-08-17T16:04:02.217Z,3.50
2022-08-17T16:06:34.635Z,3.35
2022-08-17T16:09:01.926Z,3.75
2022-08-17T16:11:28.926Z,3.70
2022-08-17T16:13:56.163Z,3.80
2022-08-17T16:16:24.268Z,3.40
2022-08-17T16:18:53.655Z,3.50
2022-08-17T16:21:27.147Z,3.70
2022-08-17T16:24:02.788Z,3.67
2022-08-17T16:26:31.975Z,3.63
2022-08-17T16:29:03.506Z,3.60
2022-08-17T16:31:31.401Z,3.38
2022-08-17T16:34:16.986Z,3.30
2022-08-17T16:36:54.639Z,3.60
2022-08-17T16:39:29.134Z,3.53
2022-08-17T16:41:57.548Z,3.60
2022-08-17T16:44:25.894Z,3.75
2022-08-17T16:46:53.451Z,3.50
2022-08-17T16:49:36.157Z,3.78
2022-08-17T16:52:10.033Z,3.67
2022-08-17T16:54:43.499Z,3.28
2022-08-17T16:57:12.224Z,3.45
2022-08-17T16:59:43.594Z,3.35
2022-08-17T17:02:15.359Z,3.70
2022-08-17T17:05:00.053Z,3.78
2022-08-17T17:07:51.098Z,4.20
2022-08-17T17:10:23.841Z,4.75
2022-08-17T17:13:01.377Z,4.13
2022-08-17T17:15:58.661Z,3.93
2022-08-17T17:19:01.643Z,4.97
2022-08-17T17:22:10.965Z,4.20
2022-08-17T17:24:50.199Z,4.22
2022-08-17T17:27:32.441Z,4.50
2022-08-17T17:30:06.584Z,4.50
2022-08-17T17:32:55.810Z,4.97
2022-08-17T17:35:59.174Z,4.50
2022-08-17T17:38:43.171Z,4.97
2022-08-17T17:41:25.847Z,4.60
2022-08-17T17:44:05.813Z,4.55
2022-08-17T17:46:43.113Z,4.22
2022-08-17T17:49:14.363Z,5.10
2022-08-17T17:52:06.567Z,4.40
2022-08-17T17:54:58.521Z,4.63
2022-08-17T17:57:38.394Z,4.28
2022-08-17T18:00:16.998Z,4.65
2022-08-17T18:03:18.596Z,4.80
2022-08-17T18:06:13.193Z,4.38
2022-08-17T18:09:03.056Z,4.75
2022-08-17T18:12:11.445Z,4.63
2022-08-17T18:15:51.629Z,4.63
2022-08-17T18:18:18.675Z,5.03
2022-08-17T18:20:54.115Z,4.03
2022-08-17T18:23:28.018Z,4.80
2022-08-17T18:25:58.702Z,4.18
2022-08-17T18:28:43.973Z,4.43
2022-08-17T18:31:19.932Z,4.07
2022-08-17T18:34:29.451Z,4.43
2022-08-17T18:36:59.579Z,4.50
2022-08-17T18:39:28.664Z,4.50
2022-08-17T18:42:00.115Z,4.45
2022-08-17T18:44:49.609Z,4.68
2022-08-17T18:47:29.276Z,4.50
2022-08-17T18:50:21.116Z,4.70
2022-08-17T18:52:48.801Z,4.65
2022-08-17T18:55:31.348Z,5.00
2022-08-17T18:58:25.638Z,4.53
2022-08-17T19:00:52.942Z,5.00
2022-08-17T19:03:26.599Z,5.00
2022-08-17T19:06:28.397Z,4.90
2022-08-17T19:08:55.484Z,5.43
2022-08-17T19:11:35.699Z,5.05
2022-08-17T19:14:13.750Z,5.37
2022-08-17T19:17:02.343Z,5.40
2022-08-17T19:19:54.261Z,4.87
2022-08-17T19:23:07.313Z,5.10
2022-08-17T19:25:42.900Z,5.32
2022-08-17T19:28:22.407Z,5.30
2022-08-17T19:30:59.602Z,5.23
2022-08-17T19:33:27.627Z,4.90
2022-08-17T19:36:22.075Z,5.88
2022-08-17T19:39:59.494Z,5.50
2022-08-17T19:42:54.009Z,5.35
2022-08-17T19:45:39.893Z,5.13
2022-08-17T19:48:16.926Z,5.50
2022-08-17T19:51:06.542Z,5.90
2022-08-17T19:54:15.119Z,6.07
2022-08-17T19:57:11.532Z,5.63
2022-08-17T19:59:57.839Z,5.15
2022-08-17T20:02:43.596Z,5.53
2022-08-17T20:05:19.703Z,5.07
2022-08-17T20:08:03.893Z,4.60
2022-08-17T20:10:37.522Z,5.15
2022-08-17T20:13:15.371Z,4.30
2022-08-17T20:15:44.941Z,4.63
2022-08-17T20:18:35.172Z,4.95
2022-08-17T20:21:26.878Z,4.60
2022-08-17T20:24:20.673Z,4.68
2022-08-17T20:26:59.529Z,4.88
2022-08-17T20:29:54.724Z,5.50
2022-08-17T20:32:27.952Z,4.97
2022-08-17T20:35:36.532Z,5.03
2022-08-17T20:38:04.888Z,4.70
2022-08-17T20:40:36.741Z,5.13
2022-08-17T20:43:34.678Z,4.97
2022-08-17T20:46:37.407Z,4.65
2022-08-17T20:49:55.369Z,4.80
2022-08-17T20:52:58.797Z,4.68
2022-08-17T20:55:51.165Z,4.93
2022-08-17T20:58:24.957Z,4.97
2022-08-17T21:00:58.684Z,5.07
2022-08-17T21:03:28.688Z,4.93
2022-08-17T21:06:19.564Z,5.13
2022-08-17T21:09:15.724Z,4.85
2022-08-17T21:12:05.022Z,4.80
2022-08-17T21:14:58.703Z,4.63
2022-08-17T21:17:44.436Z,4.90
2022-08-17T21:20:42.355Z,4.60
2022-08-17T21:23:30.236Z,5.20
2022-08-17T21:26:38.978Z,4.53
2022-08-17T21:29:31.338Z,4.80
2022-08-17T21:32:03.105Z,4.72
2022-08-17T21:34:36.805Z,5.43
2022-08-17T21:37:19.097Z,4.35
2022-08-17T21:39:58.465Z,4.50
2022-08-17T21:42:32.650Z,4.50
2022-08-17T21:45:30.540Z,4.22
2022-08-17T21:48:15.067Z,4.50
2022-08-17T21:50:57.536Z,4.68
2022-08-17T21:53:49.435Z,4.80
2022-08-17T21:56:48.319Z,4.63
2022-08-17T21:59:30.323Z,4.57
2022-08-17T22:02:01.133Z,4.68
2022-08-17T22:04:39.174Z,4.82
2022-08-17T22:07:13.152Z,4.78
2022-08-17T22:09:48.952Z,4.75
2022-08-17T22:12:24.131Z,4.50
2022-08-17T22:15:06.047Z,5.10
2022-08-17T22:17:45.168Z,5.10
2022-08-17T22:20:20.844Z,4.57
2022-08-17T22:23:08.996Z,4.75
2022-08-17T22:25:41.241Z,4.65
2022-08-17T22:28:12.504Z,4.93
2022-08-17T22:30:42.247Z,5.00
2022-08-17T22:33:44.466Z,4.75
2022-08-17T22:36:33.709Z,4.75
2022-08-17T22:39:09.441Z,4.60
2022-08-17T22:41:48.283Z,4.75
2022-08-17T22:44:37.817Z,4.82
2022-08-17T22:47:38.693Z,4.75
2022-08-17T22:50:24.691Z,4.53
2022-08-17T22:53:20.901Z,5.00
2022-08-17T22:56:13.135Z,4.97
2022-08-17T22:59:10.732Z,5.03
2022-08-17T23:01:39.202Z,4.67
2022-08-17T23:04:32.612Z,5.15
2022-08-17T23:06:59.716Z,5.10
2022-08-17T23:09:26.792Z,5.13
2022-08-17T23:11:58.637Z,5.10
2022-08-17T23:14:32.458Z,4.65
2022-08-17T23:17:01.018Z,4.82
2022-08-17T23:19:31.836Z,5.03
2022-08-17T23:22:02.684Z,4.60
2022-08-17T23:24:35.630Z,4.93
2022-08-17T23:27:07.406Z,5.03
2022-08-17T23:29:35.389Z,4.38
2022-08-17T23:32:04.740Z,5.10
2022-08-17T23:34:32.202Z,4.88
2022-08-17T23:37:02.748Z,4.70
2022-08-17T23:39:29.945Z,4.85
2022-08-17T23:42:00.154Z,5.10
2022-08-17T23:44:28.829Z,5.13
2022-08-17T23:46:56.469Z,5.05
2022-08-17T23:49:25.211Z,4.80
2022-08-17T23:51:54.768Z,4.85
2022-08-17T23:54:37.436Z,4.80
2022-08-17T23:57:04.977Z,5.40
2022-08-17T23:59:33.888Z,4.72
